Time;durP1;ratioP1;P1;durP2;ratioP2;P2;SDS_P1;SDS_P2;PMS_P1;PMS_P2;Temp;Humidity;BMP_temperature;BMP_pressure;BME280_temperature;BME280_humidity;BME280_pressure;Samples;Min_cycle;Max_cycle;Signal;HPM_P1;HPM_P2
2022/03/04 00:01:46;;;;;;;290.83;144.55;;;-1.40;1.00;;;;;;5077985;28;20037;-79
2022/03/04 00:04:16;;;;;;;279.10;138.95;;;-1.50;1.00;;;;;;5076462;28;20032;-79
2022/03/04 00:06:43;;;;;;;271.85;139.40;;;-1.50;1.00;;;;;;5044310;28;20056;-78
2022/03/04 00:09:11;;;;;;;274.58;140.23;;;-1.50;1.00;;;;;;5057537;28;20036;-78
2022/03/04 00:11:39;;;;;;;261.35;137.50;;;-1.60;1.00;;;;;;5039763;28;20063;-78
2022/03/04 00:14:07;;;;;;;265.95;137.30;;;-1.60;1.00;;;;;;5056996;28;20116;-78
2022/03/04 00:16:34;;;;;;;279.95;136.98;;;-1.60;1.00;;;;;;5057622;28;20048;-78
2022/03/04 00:19:09;;;;;;;262.15;134.65;;;-1.60;1.00;;;;;;5057010;28;20087;-78
2022/03/04 00:21:41;;;;;;;278.52;138.98;;;-1.60;1.00;;;;;;5057402;28;20091;-77
2022/03/04 00:24:09;;;;;;;275.13;142.18;;;-1.70;1.00;;;;;;5057007;28;20052;-78
2022/03/04 00:26:37;;;;;;;257.55;129.30;;;-1.70;1.00;;;;;;5056510;28;20496;-77
2022/03/04 00:29:05;;;;;;;290.02;148.43;;;-1.80;1.00;;;;;;5056637;28;20427;-77
2022/03/04 00:31:33;;;;;;;248.82;130.90;;;-1.80;1.00;;;;;;5039547;28;20131;-77
2022/03/04 00:34:01;;;;;;;196.48;108.55;;;-1.90;1.00;;;;;;5056946;28;20044;-77
2022/03/04 00:36:29;;;;;;;214.18;113.13;;;-2.00;1.00;;;;;;5056724;28;20401;-77
2022/03/04 00:38:58;;;;;;;192.27;105.30;;;-2.10;1.00;;;;;;5038550;28;20053;-79
2022/03/04 00:41:26;;;;;;;178.02;98.50;;;-2.00;1.00;;;;;;5056436;28;20385;-78
2022/03/04 00:43:54;;;;;;;177.52;93.57;;;-2.00;1.00;;;;;;5056137;28;20323;-77
2022/03/04 00:46:22;;;;;;;183.25;99.47;;;-1.90;1.00;;;;;;5056438;28;20049;-76
2022/03/04 00:48:50;;;;;;;185.77;99.53;;;-2.00;1.00;;;;;;5055731;28;20047;-77
2022/03/04 00:51:17;;;;;;;181.48;98.40;;;-1.90;1.00;;;;;;5055981;28;20039;-77
2022/03/04 00:53:45;;;;;;;202.02;107.97;;;-1.90;1.00;;;;;;5038222;28;20077;-77
2022/03/04 00:56:14;;;;;;;163.02;87.63;;;-1.60;1.00;;;;;;5059082;28;20059;-76
2022/03/04 00:58:42;;;;;;;193.48;99.07;;;-1.70;1.00;;;;;;5080110;28;20080;-77
2022/03/04 01:01:10;;;;;;;168.25;83.32;;;-1.70;1.00;;;;;;5080309;28;20040;-77
2022/03/04 01:03:38;;;;;;;143.73;77.10;;;-1.80;1.00;;;;;;5079713;28;20036;-76
2022/03/04 01:06:07;;;;;;;150.43;76.97;;;-1.80;1.00;;;;;;5072540;28;20029;-77
2022/03/04 01:08:35;;;;;;;166.63;81.70;;;-1.90;1.00;;;;;;5083001;28;20032;-78
2022/03/04 01:11:02;;;;;;;190.10;92.80;;;-1.90;1.00;;;;;;5090453;28;20072;-78
2022/03/04 01:13:31;;;;;;;228.98;107.57;;;-1.90;1.00;;;;;;5059680;28;20052;-77
2022/03/04 01:15:59;;;;;;;206.27;103.78;;;-1.90;1.00;;;;;;5077023;28;20040;-77
2022/03/04 01:18:27;;;;;;;221.02;111.55;;;-2.00;1.00;;;;;;5058556;28;20064;-79
2022/03/04 01:20:54;;;;;;;226.32;111.65;;;-2.00;1.00;;;;;;5076556;28;20048;-80
2022/03/04 01:23:22;;;;;;;209.27;99.80;;;-2.10;1.00;;;;;;5074997;28;20051;-79
2022/03/04 01:25:52;;;;;;;213.50;106.63;;;-2.10;1.00;;;;;;5077981;28;20047;-79
2022/03/04 01:28:20;;;;;;;207.65;99.88;;;-2.20;1.00;;;;;;5076426;28;20071;-77
2022/03/04 01:30:49;;;;;;;200.38;99.70;;;-2.20;1.00;;;;;;5058565;28;20053;-78
2022/03/04 01:33:17;;;;;;;200.27;96.15;;;-2.20;1.00;;;;;;5058389;28;20404;-78
2022/03/04 01:35:45;;;;;;;182.63;95.95;;;-2.20;1.00;;;;;;5059956;28;20044;-78
2022/03/04 01:38:12;;;;;;;195.43;99.55;;;-2.30;1.00;;;;;;5076954;28;20037;-79
2022/03/04 01:40:40;;;;;;;207.68;103.82;;;-2.30;1.00;;;;;;5058644;28;20166;-79
2022/03/04 01:43:08;;;;;;;207.32;104.75;;;-2.20;1.00;;;;;;5058566;28;20052;-77
2022/03/04 01:45:36;;;;;;;210.00;106.50;;;-2.20;1.00;;;;;;5058482;28;20139;-78
2022/03/04 01:48:06;;;;;;;213.35;106.78;;;-2.40;1.00;;;;;;5058443;28;20083;-76
2022/03/04 01:50:35;;;;;;;196.32;102.88;;;-2.40;1.00;;;;;;5058198;28;20066;-78
2022/03/04 01:53:03;;;;;;;183.50;98.72;;;-2.40;1.00;;;;;;5037959;28;20050;-80
2022/03/04 01:55:31;;;;;;;175.35;95.25;;;-2.40;1.00;;;;;;5034924;28;20057;-78
2022/03/04 01:57:59;;;;;;;167.68;93.35;;;-2.50;1.00;;;;;;5057077;28;20094;-78
2022/03/04 02:00:27;;;;;;;170.85;92.70;;;-2.50;1.00;;;;;;5056320;28;20049;-77
2022/03/04 02:02:57;;;;;;;178.57;98.10;;;-2.50;1.00;;;;;;5039386;28;20071;-79
2022/03/04 02:05:26;;;;;;;169.43;94.25;;;-2.50;1.00;;;;;;5061968;28;20096;-77
2022/03/04 02:07:54;;;;;;;163.25;87.97;;;-2.60;1.00;;;;;;5066732;28;20098;-78
2022/03/04 02:10:21;;;;;;;162.18;88.05;;;-2.60;1.00;;;;;;5067087;28;20040;-77
2022/03/04 02:12:49;;;;;;;162.52;88.32;;;-2.60;1.00;;;;;;5068506;28;20161;-77
2022/03/04 02:15:16;;;;;;;144.90;81.22;;;-2.70;1.00;;;;;;5081050;28;20067;-77
2022/03/04 02:17:44;;;;;;;145.25;80.78;;;-2.70;4.50;;;;;;5082470;28;20051;-77
2022/03/04 02:20:12;;;;;;;145.05;80.22;;;-2.60;12.10;;;;;;5057232;28;20056;-79
2022/03/04 02:22:41;;;;;;;151.38;83.22;;;-2.70;8.10;;;;;;5055037;28;20056;-80
2022/03/04 02:25:09;;;;;;;135.38;75.40;;;-2.70;8.70;;;;;;5056038;28;20047;-79
2022/03/04 02:27:36;;;;;;;134.70;74.40;;;-2.70;1.00;;;;;;5055252;28;20075;-77
2022/03/04 02:30:06;;;;;;;136.20;78.30;;;-2.80;1.00;;;;;;5038137;28;20071;-79
2022/03/04 02:32:33;;;;;;;139.25;77.53;;;-2.80;40.50;;;;;;5056076;28;20045;-78
2022/03/04 02:35:03;;;;;;;152.85;81.75;;;-2.90;88.90;;;;;;5057151;28;20033;-78
2022/03/04 02:37:31;;;;;;;165.30;90.88;;;-2.80;99.90;;;;;;5038996;28;20064;-78
2022/03/04 02:40:00;;;;;;;163.05;89.88;;;-2.80;99.90;;;;;;5056781;28;20049;-78
2022/03/04 02:42:27;;;;;;;175.88;96.43;;;-2.80;99.90;;;;;;5059355;28;20040;-78
2022/03/04 02:44:55;;;;;;;164.25;90.85;;;-2.80;98.00;;;;;;5059139;28;20152;-79
2022/03/04 02:47:22;;;;;;;160.63;88.65;;;-2.80;90.30;;;;;;5043961;28;20207;-78
2022/03/04 02:49:49;;;;;;;157.48;87.25;;;-2.70;99.30;;;;;;5073685;28;20119;-79
2022/03/04 02:52:17;;;;;;;152.25;83.60;;;-2.70;95.60;;;;;;5057575;28;20037;-78
2022/03/04 02:54:45;;;;;;;156.63;84.97;;;-2.70;98.20;;;;;;5058310;28;20045;-79
2022/03/04 02:57:13;;;;;;;153.10;83.47;;;-2.70;54.40;;;;;;5058362;28;20045;-79
2022/03/04 02:59:41;;;;;;;171.13;88.82;;;-2.60;40.50;;;;;;5038611;28;20053;-79
2022/03/04 03:02:08;;;;;;;159.45;86.60;;;-2.60;26.90;;;;;;5068606;28;20045;-77
2022/03/04 03:04:36;;;;;;;160.27;85.22;;;-2.70;1.40;;;;;;5084065;28;20049;-79
2022/03/04 03:07:04;;;;;;;155.13;85.45;;;-2.70;1.00;;;;;;5061221;28;20044;-79
2022/03/04 03:09:32;;;;;;;145.10;80.15;;;-2.70;2.80;;;;;;5080862;28;20438;-80
2022/03/04 03:12:00;;;;;;;137.23;77.38;;;-2.70;19.70;;;;;;5080784;28;20119;-79
2022/03/04 03:14:29;;;;;;;128.13;71.30;;;-2.70;48.20;;;;;;5062437;28;20395;-80
2022/03/04 03:16:56;;;;;;;126.45;67.97;;;-2.80;96.60;;;;;;5080189;28;20123;-80
2022/03/04 03:19:24;;;;;;;112.32;61.45;;;-2.80;94.90;;;;;;5078825;28;20053;-80
2022/03/04 03:21:52;;;;;;;112.05;59.53;;;-2.80;90.80;;;;;;5079815;28;20553;-79
2022/03/04 03:24:20;;;;;;;125.00;67.65;;;-2.80;99.90;;;;;;5067703;28;20048;-79
2022/03/04 03:26:47;;;;;;;154.98;85.20;;;-2.80;99.90;;;;;;5082484;28;20044;-79
2022/03/04 03:29:15;;;;;;;162.80;91.10;;;-3.00;99.90;;;;;;5068775;28;20052;-78
2022/03/04 03:31:43;;;;;;;136.85;79.65;;;-2.90;99.90;;;;;;5084353;28;20037;-80
2022/03/04 03:34:11;;;;;;;133.10;74.38;;;-2.90;99.90;;;;;;5067017;28;20056;-80
2022/03/04 03:36:38;;;;;;;123.50;68.38;;;-2.90;99.90;;;;;;5071465;28;20067;-79
2022/03/04 03:39:08;;;;;;;120.38;67.32;;;-2.90;99.90;;;;;;5069830;28;20507;-79
2022/03/04 03:41:35;;;;;;;117.20;64.57;;;-2.90;99.90;;;;;;5079792;28;20047;-80
2022/03/04 03:44:03;;;;;;;121.05;65.22;;;-2.90;99.90;;;;;;5080663;28;20403;-80
2022/03/04 03:46:31;;;;;;;117.05;63.42;;;-2.80;99.90;;;;;;5067874;28;20041;-78
2022/03/04 03:49:01;;;;;;;121.40;65.78;;;-2.80;99.90;;;;;;5040816;28;20057;-80
2022/03/04 03:51:28;;;;;;;111.40;61.20;;;-2.90;99.90;;;;;;5058951;28;20490;-80
2022/03/04 03:53:56;;;;;;;115.22;62.70;;;-2.90;99.90;;;;;;5059144;28;20139;-80
2022/03/04 03:56:23;;;;;;;146.27;81.18;;;-2.90;99.90;;;;;;5059364;28;20077;-79
2022/03/04 03:58:51;;;;;;;122.47;70.50;;;-3.00;99.90;;;;;;5041697;28;20499;-78
2022/03/04 04:01:18;;;;;;;120.80;70.90;;;-3.10;99.90;;;;;;5059615;28;20041;-80
2022/03/04 04:03:46;;;;;;;123.15;68.93;;;-3.10;99.90;;;;;;5059621;28;20500;-80
2022/03/04 04:06:15;;;;;;;125.32;68.43;;;-3.20;99.90;;;;;;5072396;28;20123;-80
2022/03/04 04:08:43;;;;;;;130.32;72.03;;;-3.20;99.90;;;;;;5066499;28;20044;-78
2022/03/04 04:11:10;;;;;;;118.60;66.72;;;-3.20;99.90;;;;;;5078246;28;20037;-80
2022/03/04 04:13:38;;;;;;;120.38;66.90;;;-3.30;99.90;;;;;;5060330;28;20056;-78
2022/03/04 04:16:05;;;;;;;112.60;63.45;;;-3.30;99.90;;;;;;5079796;28;20083;-80
2022/03/04 04:18:33;;;;;;;116.15;65.68;;;-3.40;99.90;;;;;;5079605;28;20095;-79
2022/03/04 04:21:01;;;;;;;111.20;63.33;;;-3.40;99.90;;;;;;5060775;28;20053;-79
2022/03/04 04:23:29;;;;;;;117.22;65.03;;;-3.40;99.90;;;;;;5060409;28;20512;-79
2022/03/04 04:25:57;;;;;;;123.22;67.38;;;-3.30;99.90;;;;;;5078335;28;20040;-78
2022/03/04 04:28:25;;;;;;;134.80;71.18;;;-3.20;99.90;;;;;;5080242;28;20106;-78
2022/03/04 04:30:53;;;;;;;126.85;71.88;;;-3.30;99.90;;;;;;5079197;28;20119;-80
2022/03/04 04:33:20;;;;;;;134.60;75.47;;;-3.30;99.90;;;;;;5060037;28;20054;-79
2022/03/04 04:35:48;;;;;;;139.50;78.13;;;-3.40;99.90;;;;;;5078024;28;20055;-78
2022/03/04 04:38:15;;;;;;;137.98;75.47;;;-3.40;99.90;;;;;;5077623;28;20040;-79
2022/03/04 04:40:44;;;;;;;137.77;77.68;;;-3.40;99.90;;;;;;5077236;28;20128;-78
2022/03/04 04:43:12;;;;;;;133.10;73.60;;;-3.40;1.00;;;;;;5062597;28;20071;-78
2022/03/04 04:45:39;;;;;;;140.40;77.05;;;-3.40;1.00;;;;;;5063300;28;20110;-79
2022/03/04 04:48:07;;;;;;;137.38;75.93;;;-3.50;1.00;;;;;;5063433;28;20048;-79
2022/03/04 04:50:34;;;;;;;136.90;76.88;;;-3.40;1.00;;;;;;5078184;28;20059;-78
2022/03/04 04:53:02;;;;;;;142.30;78.65;;;-3.40;1.00;;;;;;5060288;28;20110;-79
2022/03/04 04:55:29;;;;;;;153.75;83.57;;;-3.40;1.00;;;;;;5080505;28;20110;-79
2022/03/04 04:57:58;;;;;;;147.48;83.18;;;-3.40;1.00;;;;;;5061874;28;20060;-79
2022/03/04 05:00:25;;;;;;;157.93;89.15;;;-3.40;1.00;;;;;;5084612;28;20559;-78
2022/03/04 05:02:53;;;;;;;160.23;92.43;;;-3.40;1.00;;;;;;5087578;28;20060;-78
2022/03/04 05:05:21;;;;;;;187.90;99.35;;;-3.40;1.00;;;;;;5083235;28;20064;-78
2022/03/04 05:07:49;;;;;;;173.57;93.30;;;-3.50;1.00;;;;;;5068163;28;20063;-78
2022/03/04 05:10:16;;;;;;;182.57;99.75;;;-3.50;1.00;;;;;;5068285;28;20052;-80
2022/03/04 05:12:44;;;;;;;182.93;96.85;;;-3.50;1.00;;;;;;5043873;28;21015;-80
2022/03/04 05:15:13;;;;;;;193.40;100.68;;;-3.50;1.00;;;;;;5059534;28;20393;-80
2022/03/04 05:17:40;;;;;;;171.85;93.15;;;-3.50;1.00;;;;;;5060234;28;20091;-79
2022/03/04 05:20:09;;;;;;;172.93;94.53;;;-3.50;1.00;;;;;;5057997;28;20068;-78
2022/03/04 05:22:36;;;;;;;165.70;91.95;;;-3.50;1.00;;;;;;5056346;28;20079;-78
2022/03/04 05:25:04;;;;;;;159.43;88.65;;;-3.60;1.00;;;;;;5041459;28;20045;-78
2022/03/04 05:27:31;;;;;;;159.55;85.63;;;-3.50;1.00;;;;;;5040742;28;20049;-77
2022/03/04 05:29:59;;;;;;;136.50;74.55;;;-3.50;1.00;;;;;;5057559;28;20037;-78
2022/03/04 05:32:27;;;;;;;143.60;80.70;;;-3.50;1.00;;;;;;5055681;28;20037;-76
2022/03/04 05:34:55;;;;;;;135.20;77.40;;;-3.50;1.00;;;;;;5055285;28;20045;-78
2022/03/04 05:37:23;;;;;;;148.40;81.07;;;-3.40;1.00;;;;;;5056433;28;20037;-77
2022/03/04 05:39:52;;;;;;;139.55;77.38;;;-3.40;1.00;;;;;;5040854;28;20467;-78
2022/03/04 05:42:19;;;;;;;149.30;83.28;;;-3.30;1.00;;;;;;5038543;28;20472;-78
2022/03/04 05:44:47;;;;;;;146.95;81.57;;;-3.20;1.00;;;;;;5059104;28;20071;-77
2022/03/04 05:47:14;;;;;;;150.52;83.40;;;-3.20;1.00;;;;;;5063177;28;20094;-76
2022/03/04 05:49:43;;;;;;;160.23;91.53;;;-3.10;99.90;;;;;;5062147;28;20051;-78
2022/03/04 05:52:11;;;;;;;177.18;100.45;;;-3.10;99.90;;;;;;5055231;28;20041;-78
2022/03/04 05:54:38;;;;;;;193.30;107.13;;;-3.00;99.90;;;;;;5056122;28;20508;-77
2022/03/04 05:57:07;;;;;;;214.88;114.97;;;-2.90;99.90;;;;;;5041193;28;20051;-78
2022/03/04 05:59:34;;;;;;;199.52;110.97;;;-2.80;99.90;;;;;;5058371;28;20046;-78
2022/03/04 06:02:02;;;;;;;202.07;114.05;;;-2.80;99.90;;;;;;5056118;28;20044;-77
2022/03/04 06:04:29;;;;;;;211.15;107.65;;;-2.60;99.90;;;;;;5056591;28;20045;-78
2022/03/04 06:06:58;;;;;;;208.45;105.68;;;-2.50;99.90;;;;;;5076470;28;20063;-78
2022/03/04 06:09:28;;;;;;;200.35;96.30;;;-2.40;51.10;;;;;;5081452;28;20068;-78
2022/03/04 06:11:56;;;;;;;184.50;95.50;;;-2.40;8.00;;;;;;5060567;28;20044;-79
2022/03/04 06:14:24;;;;;;;187.88;90.95;;;-2.30;1.00;;;;;;5087768;28;20024;-77
2022/03/04 06:16:51;;;;;;;176.82;86.45;;;-2.20;1.00;;;;;;5085805;28;20055;-77
2022/03/04 06:19:20;;;;;;;180.35;88.97;;;-2.10;1.00;;;;;;5078315;28;20049;-78
2022/03/04 06:21:48;;;;;;;184.52;89.22;;;-1.90;1.00;;;;;;5077447;28;20059;-78
2022/03/04 06:24:17;;;;;;;215.50;102.85;;;-1.80;1.00;;;;;;5059030;28;20139;-78
2022/03/04 06:26:44;;;;;;;222.55;107.85;;;-1.70;1.00;;;;;;5059572;28;20494;-78
2022/03/04 06:29:12;;;;;;;211.43;100.15;;;-1.70;1.00;;;;;;5059277;28;20066;-77
2022/03/04 06:31:40;;;;;;;201.90;96.75;;;-1.60;1.00;;;;;;5077909;28;20059;-78
2022/03/04 06:34:07;;;;;;;172.30;88.72;;;-1.50;1.00;;;;;;5079238;28;20100;-77
2022/03/04 06:36:35;;;;;;;163.30;82.60;;;-1.40;1.00;;;;;;5076380;28;20144;-78
2022/03/04 06:39:02;;;;;;;161.82;85.18;;;-1.30;1.00;;;;;;5093427;28;20065;-77
2022/03/04 06:41:31;;;;;;;197.02;93.72;;;-1.10;1.00;;;;;;5077274;28;20048;-77
2022/03/04 06:43:58;;;;;;;196.18;96.82;;;-0.90;1.00;;;;;;5077000;28;20059;-77
2022/03/04 06:46:26;;;;;;;197.98;98.30;;;-0.90;1.00;;;;;;5095040;28;20079;-78
2022/03/04 06:48:53;;;;;;;192.10;100.32;;;-0.90;1.00;;;;;;5095790;28;20107;-78
2022/03/04 06:51:21;;;;;;;181.60;97.72;;;-0.80;1.00;;;;;;5095219;28;20107;-77
2022/03/04 06:53:49;;;;;;;224.18;105.70;;;-0.70;1.00;;;;;;5077142;28;20053;-78
2022/03/04 06:56:18;;;;;;;198.68;98.32;;;-0.70;1.00;;;;;;5095149;28;20045;-77
2022/03/04 06:58:47;;;;;;;202.38;102.10;;;-0.60;1.00;;;;;;5077408;28;20048;-77
2022/03/04 07:01:15;;;;;;;199.80;103.50;;;-0.40;1.00;;;;;;5065868;28;20052;-78
2022/03/04 07:03:42;;;;;;;206.82;103.10;;;-0.20;1.00;;;;;;5060063;28;20441;-78
2022/03/04 07:06:10;;;;;;;206.68;108.30;;;0.10;1.00;;;;;;5041544;28;20053;-78
2022/03/04 07:08:37;;;;;;;226.05;117.38;;;0.40;1.00;;;;;;5059117;28;20052;-77
2022/03/04 07:11:05;;;;;;;232.55;121.82;;;0.70;1.00;;;;;;5056074;28;20064;-76
2022/03/04 07:13:33;;;;;;;226.88;119.95;;;1.10;1.00;;;;;;5036846;28;20065;-78
2022/03/04 07:16:02;;;;;;;261.85;131.88;;;1.50;99.90;;;;;;5037588;28;20049;-78
2022/03/04 07:18:33;;;;;;;249.98;125.28;;;2.10;1.00;;;;;;5037724;28;20041;-78
2022/03/04 07:21:01;;;;;;;267.80;132.07;;;2.40;1.00;;;;;;5037899;28;20131;-78
2022/03/04 07:23:30;;;;;;;239.88;122.45;;;2.50;1.00;;;;;;5056080;28;20432;-78
2022/03/04 07:25:57;;;;;;;237.05;122.78;;;2.50;1.00;;;;;;5038607;28;20472;-78
2022/03/04 07:28:25;;;;;;;221.10;118.15;;;2.40;14.30;;;;;;5038523;28;20099;-79
2022/03/04 07:30:53;;;;;;;220.95;113.80;;;2.30;1.00;;;;;;5037220;28;20454;-78
2022/03/04 07:33:22;;;;;;;212.45;114.05;;;2.20;1.00;;;;;;5038740;28;20044;-77
2022/03/04 07:35:50;;;;;;;212.27;107.00;;;2.20;1.00;;;;;;5038026;28;20126;-78
2022/03/04 07:38:18;;;;;;;200.07;101.43;;;2.10;1.00;;;;;;5039524;28;20071;-78
2022/03/04 07:40:46;;;;;;;185.38;97.68;;;2.30;1.00;;;;;;5041618;28;20068;-78
2022/03/04 07:43:14;;;;;;;184.40;93.57;;;2.40;1.00;;;;;;5039254;28;20040;-76
2022/03/04 07:45:41;;;;;;;198.52;102.57;;;2.50;1.00;;;;;;5050697;28;20068;-77
2022/03/04 07:48:09;;;;;;;210.50;106.10;;;2.60;1.00;;;;;;5067322;28;20059;-78
2022/03/04 07:50:38;;;;;;;204.40;110.07;;;2.70;1.00;;;;;;5049001;28;20045;-76
2022/03/04 07:53:05;;;;;;;199.80;105.47;;;2.90;1.00;;;;;;5059386;28;20075;-79
2022/03/04 07:55:33;;;;;;;187.65;98.60;;;3.10;1.00;;;;;;5059615;28;20071;-79
2022/03/04 07:58:00;;;;;;;188.90;98.95;;;3.40;1.00;;;;;;5060249;28;20059;-77
2022/03/04 08:00:28;;;;;;;196.30;100.60;;;3.30;1.00;;;;;;5057839;28;20045;-78
2022/03/04 08:02:56;;;;;;;178.88;93.20;;;3.50;81.50;;;;;;5058084;28;20443;-76
2022/03/04 08:05:24;;;;;;;156.88;82.78;;;3.50;92.60;;;;;;5058766;28;20040;-76
2022/03/04 08:07:53;;;;;;;134.80;65.30;;;3.50;99.90;;;;;;5059008;28;20068;-78
2022/03/04 08:10:20;;;;;;;113.68;60.75;;;3.60;99.90;;;;;;5058871;28;20044;-77
2022/03/04 08:12:48;;;;;;;115.05;60.70;;;3.60;1.00;;;;;;5051611;28;20047;-78
2022/03/04 08:15:15;;;;;;;107.38;57.90;;;3.80;1.00;;;;;;5060089;28;20040;-78
2022/03/04 08:17:45;;;;;;;109.10;60.70;;;3.80;1.00;;;;;;5039929;28;20037;-78
2022/03/04 08:20:12;;;;;;;110.63;60.58;;;4.00;1.00;;;;;;5040338;28;20137;-78
2022/03/04 08:22:40;;;;;;;102.05;54.70;;;4.10;1.00;;;;;;5040020;28;20064;-77
2022/03/04 08:25:10;;;;;;;106.28;53.63;;;4.40;1.00;;;;;;5037480;28;20103;-78
2022/03/04 08:27:38;;;;;;;82.72;45.10;;;4.50;99.90;;;;;;5037015;28;20040;-77
2022/03/04 08:30:08;;;;;;;89.85;49.72;;;4.60;99.90;;;;;;5021281;28;20556;-78
2022/03/04 08:32:35;;;;;;;82.38;43.17;;;4.60;1.00;;;;;;5039350;28;20452;-77
2022/03/04 08:35:03;;;;;;;86.90;43.53;;;4.60;1.00;;;;;;5058336;28;20433;-77
2022/03/04 08:37:32;;;;;;;92.55;47.65;;;4.70;99.90;;;;;;5039911;28;20044;-79
2022/03/04 08:40:01;;;;;;;75.13;40.13;;;4.80;1.00;;;;;;5042519;28;20049;-75
2022/03/04 08:42:31;;;;;;;88.65;48.53;;;5.00;1.00;;;;;;5042049;28;20075;-75
2022/03/04 08:44:58;;;;;;;87.63;51.08;;;5.00;1.00;;;;;;5060339;28;20107;-78
2022/03/04 08:47:26;;;;;;;99.43;51.13;;;5.10;1.00;;;;;;5040159;28;20052;-77
2022/03/04 08:49:54;;;;;;;93.10;52.33;;;5.20;1.00;;;;;;5056097;28;20041;-78
2022/03/04 08:52:21;;;;;;;95.10;52.55;;;5.30;1.00;;;;;;5056842;28;20045;-77
2022/03/04 08:54:52;;;;;;;93.45;52.42;;;5.40;1.00;;;;;;5058053;28;20045;-78
2022/03/04 08:57:19;;;;;;;101.50;53.50;;;5.50;1.00;;;;;;5045154;28;20053;-77
2022/03/04 08:59:48;;;;;;;94.78;52.53;;;5.50;1.00;;;;;;5043123;28;20091;-78
2022/03/04 09:02:17;;;;;;;91.63;50.63;;;5.50;1.00;;;;;;5019314;28;20049;-76
2022/03/04 09:04:45;;;;;;;84.90;47.08;;;5.50;1.00;;;;;;5025054;28;20041;-77
2022/03/04 09:07:12;;;;;;;89.03;48.65;;;5.40;1.00;;;;;;5056285;28;20041;-78
2022/03/04 09:09:40;;;;;;;95.35;49.15;;;5.50;1.00;;;;;;5038099;28;20079;-76
2022/03/04 09:12:09;;;;;;;81.18;46.70;;;5.50;1.00;;;;;;5038774;28;20148;-77
2022/03/04 09:14:36;;;;;;;85.82;47.70;;;5.50;1.00;;;;;;5038747;28;20049;-76
2022/03/04 09:17:06;;;;;;;85.32;47.47;;;5.70;1.00;;;;;;5031910;28;20041;-78
2022/03/04 09:19:34;;;;;;;76.43;44.40;;;5.80;1.00;;;;;;5039377;28;20057;-77
2022/03/04 09:22:02;;;;;;;80.95;45.22;;;5.90;1.00;;;;;;5062286;28;20111;-77
2022/03/04 09:24:29;;;;;;;66.53;38.13;;;6.00;1.00;;;;;;5074069;28;20079;-77
2022/03/04 09:26:57;;;;;;;65.80;34.90;;;6.10;1.00;;;;;;5056434;28;20045;-78
2022/03/04 09:29:25;;;;;;;65.07;33.65;;;6.00;1.00;;;;;;5061550;28;20049;-79
2022/03/04 09:31:52;;;;;;;67.47;36.53;;;6.00;25.10;;;;;;5049104;28;20117;-78
2022/03/04 09:34:21;;;;;;;59.30;34.42;;;6.10;19.30;;;;;;5062404;28;20043;-79
2022/03/04 09:36:49;;;;;;;66.35;37.55;;;6.00;16.60;;;;;;5043533;28;20492;-78
2022/03/04 09:39:16;;;;;;;64.07;34.78;;;6.00;24.90;;;;;;5043012;28;20045;-78
2022/03/04 09:41:47;;;;;;;65.32;35.33;;;6.00;25.20;;;;;;5061751;28;20041;-77
2022/03/04 09:44:16;;;;;;;67.55;38.88;;;6.10;20.60;;;;;;5047869;28;20071;-80
2022/03/04 09:46:45;;;;;;;72.57;38.40;;;6.20;15.30;;;;;;5052963;28;20045;-79
2022/03/04 09:49:17;;;;;;;60.45;34.28;;;6.30;25.40;;;;;;5054573;28;20053;-80
2022/03/04 09:51:46;;;;;;;66.38;36.90;;;6.40;23.50;;;;;;5071862;28;20040;-78
2022/03/04 09:54:14;;;;;;;63.28;35.22;;;6.50;23.70;;;;;;5055281;28;20041;-79
2022/03/04 09:56:43;;;;;;;70.70;36.70;;;6.50;54.80;;;;;;5072622;28;20081;-79
2022/03/04 09:59:10;;;;;;;68.57;37.90;;;6.60;28.80;;;;;;5053053;28;20121;-79
2022/03/04 10:01:38;;;;;;;65.63;35.80;;;6.70;26.50;;;;;;5068642;28;20061;-80
2022/03/04 10:04:07;;;;;;;67.05;37.17;;;6.70;24.90;;;;;;5062005;28;20404;-77
2022/03/04 10:06:38;;;;;;;64.60;35.45;;;6.70;33.30;;;;;;5040830;28;20491;-78
2022/03/04 10:09:07;;;;;;;73.95;35.38;;;6.80;31.00;;;;;;5040299;28;20060;-78
2022/03/04 10:11:38;;;;;;;61.03;37.38;;;7.00;17.60;;;;;;5060206;28;20195;-76
2022/03/04 10:14:07;;;;;;;67.55;35.25;;;6.90;27.30;;;;;;5060573;28;20037;-78
2022/03/04 10:16:36;;;;;;;70.85;36.38;;;6.90;27.70;;;;;;5042608;28;20072;-80
2022/03/04 10:19:11;;;;;;;58.47;32.97;;;7.00;39.70;;;;;;5059405;28;20053;-79
2022/03/04 10:21:49;;;;;;;68.22;33.05;;;7.20;25.80;;;;;;5063882;28;20051;-79
2022/03/04 10:24:20;;;;;;;57.75;33.67;;;7.30;20.70;;;;;;5044615;28;20049;-78
2022/03/04 10:26:55;;;;;;;60.47;32.78;;;7.40;24.30;;;;;;5043225;28;20053;-80
2022/03/04 10:29:23;;;;;;;55.72;32.65;;;7.40;26.50;;;;;;5061971;28;20052;-78
2022/03/04 10:32:15;;;;;;;57.05;31.35;;;7.50;24.90;;;;;;5061250;28;20068;-79
2022/03/04 10:34:52;;;;;;;55.13;32.13;;;7.50;25.30;;;;;;5042574;28;20041;-78
2022/03/04 10:37:22;;;;;;;77.03;35.13;;;7.50;25.00;;;;;;5043077;28;20056;-77
2022/03/04 10:40:07;;;;;;;54.58;32.88;;;7.50;25.60;;;;;;5061148;28;20056;-80
2022/03/04 10:42:48;;;;;;;56.88;33.00;;;7.50;25.40;;;;;;5067936;28;20032;-78
2022/03/04 10:45:19;;;;;;;54.30;31.73;;;7.60;24.80;;;;;;5045565;28;20071;-79
2022/03/04 10:47:50;;;;;;;46.45;28.58;;;7.60;24.60;;;;;;5052334;28;20408;-80
2022/03/04 10:50:20;;;;;;;57.25;30.48;;;7.70;26.40;;;;;;5070299;28;20045;-79
2022/03/04 10:53:02;;;;;;;60.90;33.22;;;7.70;25.50;;;;;;5033833;28;20140;-79
2022/03/04 10:55:36;;;;;;;52.47;31.73;;;7.80;27.70;;;;;;5063947;28;20040;-80
2022/03/04 10:58:06;;;;;;;62.90;30.75;;;7.80;30.50;;;;;;5066226;28;20126;-80
2022/03/04 11:00:36;;;;;;;44.30;26.40;;;7.90;25.90;;;;;;5084115;28;20044;-79
2022/03/04 11:03:05;;;;;;;53.30;27.65;;;8.00;27.50;;;;;;5088728;28;20475;-80
2022/03/04 11:05:34;;;;;;;49.35;26.70;;;8.10;26.90;;;;;;5051649;28;20043;-80
2022/03/04 11:08:03;;;;;;;42.67;25.83;;;8.00;28.10;;;;;;5050724;28;20045;-79
2022/03/04 11:10:30;;;;;;;48.65;25.33;;;8.00;28.00;;;;;;5050116;28;20045;-81
2022/03/04 11:12:59;;;;;;;42.90;25.40;;;8.00;26.80;;;;;;5049028;28;20037;-80
2022/03/04 11:15:27;;;;;;;44.30;26.88;;;8.00;28.90;;;;;;5048724;28;20089;-79
2022/03/04 11:17:55;;;;;;;47.35;26.60;;;8.10;34.00;;;;;;5049602;28;20050;-80
2022/03/04 11:20:23;;;;;;;48.85;27.75;;;8.20;34.50;;;;;;5040641;28;20052;-80
2022/03/04 11:22:51;;;;;;;38.08;21.35;;;8.30;35.80;;;;;;5085537;28;20419;-81
2022/03/04 11:25:19;;;;;;;39.67;18.80;;;8.40;34.60;;;;;;5086763;28;20064;-80
2022/03/04 11:27:48;;;;;;;36.03;18.98;;;8.40;66.00;;;;;;5084617;28;20076;-78
2022/03/04 11:30:37;;;;;;;38.38;20.70;;;8.50;62.50;;;;;;5067583;28;20119;-80
2022/03/04 11:33:13;;;;;;;34.90;17.98;;;8.60;66.60;;;;;;5068988;28;20070;-78
2022/03/04 11:36:00;;;;;;;;;;;8.60;67.60;;;;;;5075314;28;20044;-78
2022/03/04 11:38:57;;;;;;;26.42;15.00;;;8.60;65.20;;;;;;5075063;28;20285;-79
2022/03/04 11:41:31;;;;;;;26.35;15.07;;;8.60;61.70;;;;;;5053051;28;20068;-78
2022/03/04 11:44:01;;;;;;;29.95;16.45;;;8.60;64.50;;;;;;5063168;28;20037;-79
2022/03/04 11:46:31;;;;;;;26.02;16.02;;;8.60;64.40;;;;;;5049236;28;20048;-79
2022/03/04 11:49:31;;;;;;;29.20;15.70;;;8.70;63.40;;;;;;5073123;28;20067;-79
2022/03/04 11:52:19;;;;;;;27.52;17.25;;;8.70;62.90;;;;;;5073960;28;20047;-76
2022/03/04 11:55:27;;;;;;;31.80;17.70;;;8.80;59.30;;;;;;5060065;28;20090;-77
2022/03/04 11:58:02;;;;;;;29.23;17.40;;;8.80;58.10;;;;;;5082189;28;20042;-77
2022/03/04 12:00:37;;;;;;;30.85;17.48;;;8.90;58.50;;;;;;5069589;28;20056;-78
2022/03/04 12:03:20;;;;;;;24.75;16.48;;;8.90;58.90;;;;;;5061100;28;20045;-77
2022/03/04 12:06:04;;;;;;;29.40;17.80;;;8.90;58.90;;;;;;5061157;28;20511;-78
2022/03/04 12:08:41;;;;;;;29.08;17.98;;;8.90;58.50;;;;;;5057198;28;20049;-76
2022/03/04 12:11:09;;;;;;;30.67;17.92;;;8.80;61.80;;;;;;5057070;28;20045;-79
2022/03/04 12:13:42;;;;;;;27.50;17.73;;;8.90;61.10;;;;;;5063008;28;20040;-80
2022/03/04 12:16:11;;;;;;;24.40;14.48;;;8.90;57.50;;;;;;5056482;28;20050;-77
2022/03/04 12:18:42;;;;;;;27.48;15.30;;;8.90;56.60;;;;;;5058363;28;20064;-77
2022/03/04 12:21:29;;;;;;;28.05;16.65;;;9.00;56.80;;;;;;5065325;28;20049;-79
2022/03/04 12:24:01;;;;;;;36.33;19.08;;;9.20;55.20;;;;;;5048098;28;20041;-80
2022/03/04 12:26:37;;;;;;;40.63;15.13;;;9.30;54.60;;;;;;5053008;28;20044;-79
2022/03/04 12:29:07;;;;;;;22.67;12.18;;;9.10;53.20;;;;;;5065101;28;20095;-78
2022/03/04 12:31:40;;;;;;;25.17;13.40;;;9.10;53.20;;;;;;5056282;28;20148;-77
2022/03/04 12:34:18;;;;;;;25.40;13.98;;;9.20;52.40;;;;;;5059424;28;20045;-78
2022/03/04 12:36:45;;;;;;;25.92;14.02;;;9.30;54.60;;;;;;5058907;28;20492;-78
2022/03/04 12:39:16;;;;;;;25.63;14.15;;;9.30;53.80;;;;;;5042778;28;20377;-79